^^
Station Historical Data
 
Daily Summary for August 20, 2019 Units:  Metric    English   Both
« Previous Day
Next Day »
Daily Weekly Monthly Yearly Custom
  Current: High: Low: Average:
Temperature: 15.8 °C 21.7 °C 11.4 °C 16.7 °C
Dew Point: 11.2 °C 15.7 °C 9.4 °C 12.4 °C
Humidity: 74% 100% 53% 78%
Wind Speed: 2.3km/h 16.7km/h 0.0km/h 2.9km/h
Wind Gust: 1.9km/h 7.6km/h - -
WindSW - - SW
Pressure: 1019.9 hPa 1019.9 hPa 1012.9 hPa -
Precipitation: 0.0 mm      
Historical Graphs
 
 
Tabular Data for August 20, 2019
Time Temperature Dew Point Pressure Wind Wind Speed Wind Gust Humidity Rainfall Rate (Hourly) solar Conditions
00:00 14.5 °C 13.1 °C 1012.9 hPa Calm     91% 0.0 mm WeatherDisplay:10.37 W/m2 CLR
00:05 14.4 °C 12.9 °C 1012.9 hPa Calm     91% 0.0 mm WeatherDisplay:10.37 W/m2 CLR
00:10 14.4 °C 13.1 °C 1012.9 hPa West 1.9 km/h 1.4 km/h 92% 0.0 mm WeatherDisplay:10.37 W/m2 CLR
00:15 14.3 °C 13.0 °C 1012.9 hPa Calm     92% 0.0 mm WeatherDisplay:10.37 W/m2 CLR
00:20 14.2 °C 12.9 °C 1012.9 hPa West 1.9 km/h 1.9 km/h 92% 0.0 mm WeatherDisplay:10.37 W/m2 CLR
00:25 14.2 °C 12.9 °C 1012.9 hPa WSW 3.7 km/h 2.3 km/h 92% 0.0 mm WeatherDisplay:10.37 W/m2 CLR
00:30 14.1 °C 13.0 °C 1012.9 hPa WSW 2.3 km/h   93% 0.0 mm WeatherDisplay:10.37 W/m2 CLR
00:35 14.1 °C 13.0 °C 1012.9 hPa WSW 2.6 km/h 1.9 km/h 93% 0.0 mm WeatherDisplay:10.37 W/m2 CLR
00:40 14.0 °C 12.9 °C 1012.9 hPa Calm     93% 0.0 mm WeatherDisplay:10.37 W/m2 CLR
00:45 14.0 °C 12.9 °C 1013.9 hPa West 2.6 km/h   93% 0.0 mm WeatherDisplay:10.37 W/m2 CLR
00:50 14.0 °C 12.9 °C 1013.9 hPa West 3.7 km/h 2.6 km/h 93% 0.0 mm WeatherDisplay:10.37 W/m2 CLR
00:55 13.9 °C 12.8 °C 1013.9 hPa West 3.7 km/h 1.9 km/h 93% 0.0 mm WeatherDisplay:10.37 W/m2 CLR
01:00 13.9 °C 12.8 °C 1013.9 hPa WSW 1.9 km/h 1.4 km/h 93% 0.0 mm WeatherDisplay:10.37 W/m2 CLR
01:05 13.8 °C 12.7 °C 1013.9 hPa WSW 1.9 km/h 1.4 km/h 93% 0.0 mm WeatherDisplay:10.37 W/m2 CLR
01:10 13.8 °C 12.7 °C 1013.9 hPa WSW 3.7 km/h 1.4 km/h 93% 0.0 mm WeatherDisplay:10.37 W/m2 CLR
01:15 13.8 °C 12.7 °C 1013.9 hPa Calm     93% 0.0 mm WeatherDisplay:10.37 W/m2 CLR
01:20 13.8 °C 12.7 °C 1013.9 hPa West 3.7 km/h 1.4 km/h 93% 0.0 mm WeatherDisplay:10.37 W/m2 CLR
01:25 13.7 °C 12.6 °C 1013.9 hPa WNW 3.9 km/h 1.9 km/h 93% 0.0 mm WeatherDisplay:10.37 W/m2 CLR
01:30 13.7 °C 12.6 °C 1013.9 hPa Calm     93% 0.0 mm WeatherDisplay:10.37 W/m2 CLR
01:35 13.7 °C 12.6 °C 1013.9 hPa NE 1.9 km/h   93% 0.0 mm WeatherDisplay:10.37 W/m2 CLR
01:40 13.6 °C 12.5 °C 1013.9 hPa West 3.9 km/h   93% 0.0 mm WeatherDisplay:10.37 W/m2 CLR
01:45 13.6 °C 12.5 °C 1013.9 hPa West 5.6 km/h 3.5 km/h 93% 0.0 mm WeatherDisplay:10.37 W/m2 CLR
01:50 13.5 °C 12.4 °C 1013.9 hPa West 1.9 km/h 2.3 km/h 93% 0.0 mm WeatherDisplay:10.37 W/m2 CLR
01:55 13.5 °C 12.4 °C 1013.9 hPa West 3.7 km/h 1.4 km/h 93% 0.0 mm WeatherDisplay:10.37 W/m2 CLR
02:00 13.5 °C 12.4 °C 1013.9 hPa Calm     93% 0.0 mm WeatherDisplay:10.37 W/m2 CLR
02:05 13.4 °C 12.3 °C 1013.9 hPa Calm     93% 0.0 mm WeatherDisplay:10.37 W/m2 CLR
02:10 13.3 °C 12.0 °C 1013.9 hPa Calm     92% 0.0 mm WeatherDisplay:10.37 W/m2 CLR
02:15 13.3 °C 12.0 °C 1012.9 hPa Calm     92% 0.0 mm WeatherDisplay:10.37 W/m2 CLR
02:20 13.2 °C 11.9 °C 1012.9 hPa Calm     92% 0.0 mm WeatherDisplay:10.37 W/m2 CLR
02:25 13.1 °C 11.7 °C 1012.9 hPa Calm     91% 0.0 mm WeatherDisplay:10.37 W/m2 CLR
02:30 13.0 °C 11.6 °C 1013.9 hPa Calm     91% 0.0 mm WeatherDisplay:10.37 W/m2 CLR
02:35 13.0 °C 11.6 °C 1013.9 hPa Calm     91% 0.0 mm WeatherDisplay:10.37 W/m2 CLR
02:40 12.9 °C 11.4 °C 1013.9 hPa Calm     91% 0.0 mm WeatherDisplay:10.37 W/m2 CLR
02:45 12.8 °C 11.4 °C 1012.9 hPa Calm     91% 0.0 mm WeatherDisplay:10.37 W/m2 CLR
02:50 12.8 °C 11.6 °C 1012.9 hPa Calm     92% 0.0 mm WeatherDisplay:10.37 W/m2 CLR
02:55 12.7 °C 11.4 °C 1012.9 hPa Calm     92% 0.0 mm WeatherDisplay:10.37 W/m2 CLR
03:00 12.6 °C 11.3 °C 1013.9 hPa Calm     92% 0.0 mm WeatherDisplay:10.37 W/m2 CLR
03:05 12.6 °C 11.3 °C 1013.9 hPa Calm     92% 0.0 mm WeatherDisplay:10.37 W/m2 CLR
03:10 12.5 °C 11.2 °C 1013.9 hPa Calm     92% 0.0 mm WeatherDisplay:10.37 W/m2 CLR
03:15 12.5 °C 11.2 °C 1013.9 hPa Calm     92% 0.0 mm WeatherDisplay:10.37 W/m2 CLR
03:20 12.4 °C 11.1 °C 1013.9 hPa Calm     92% 0.0 mm WeatherDisplay:10.37 W/m2 CLR
03:25 12.4 °C 11.1 °C 1013.9 hPa Calm     92% 0.0 mm WeatherDisplay:10.37 W/m2 CLR
03:30 12.4 °C 11.1 °C 1013.9 hPa Calm     92% 0.0 mm WeatherDisplay:10.37 W/m2 CLR
03:35 12.4 °C 11.1 °C 1013.9 hPa Calm     92% 0.0 mm WeatherDisplay:10.37 W/m2 CLR
03:40 12.4 °C 11.1 °C 1013.9 hPa Calm     92% 0.0 mm WeatherDisplay:10.37 W/m2 CLR
03:45 12.3 °C 11.1 °C 1014.9 hPa Calm     92% 0.0 mm WeatherDisplay:10.37 W/m2 CLR
03:50 12.2 °C 10.9 °C 1014.9 hPa Calm     92% 0.0 mm WeatherDisplay:10.37 W/m2 CLR
03:55 12.1 °C 10.8 °C 1014.9 hPa SE 3.7 km/h   92% 0.0 mm WeatherDisplay:10.37 W/m2 CLR
04:00 12.0 °C 10.7 °C 1014.9 hPa East 4.7 km/h 3.2 km/h 92% 0.0 mm WeatherDisplay:10.37 W/m2 CLR
04:05 11.9 °C 10.7 °C 1014.9 hPa East 3.7 km/h 1.4 km/h 92% 0.0 mm WeatherDisplay:10.37 W/m2 CLR
04:10 11.8 °C 10.6 °C 1014.9 hPa Calm     92% 0.0 mm WeatherDisplay:10.37 W/m2 CLR
04:15 11.7 °C 10.6 °C 1014.9 hPa Calm     93% 0.0 mm WeatherDisplay:10.37 W/m2 CLR
04:20 11.7 °C 10.6 °C 1014.9 hPa Calm     93% 0.0 mm WeatherDisplay:10.37 W/m2 CLR
04:25 11.7 °C 10.6 °C 1014.9 hPa Calm     93% 0.0 mm WeatherDisplay:10.37 W/m2 CLR
04:30 11.8 °C 10.9 °C 1014.9 hPa Calm     94% 0.0 mm WeatherDisplay:10.37 W/m2 CLR
04:35 11.8 °C 10.9 °C 1014.9 hPa East 3.7 km/h 2.6 km/h 94% 0.0 mm WeatherDisplay:10.37 W/m2 CLR
04:40 11.8 °C 10.9 °C 1014.9 hPa ESE 2.3 km/h 2.3 km/h 94% 0.0 mm WeatherDisplay:10.37 W/m2 CLR
04:45 11.9 °C 10.9 °C 1015.9 hPa SE 3.7 km/h 1.4 km/h 94% 0.0 mm WeatherDisplay:10.37 W/m2 CLR
04:50 11.9 °C 10.9 °C 1015.9 hPa East 3.7 km/h 2.3 km/h 94% 0.0 mm WeatherDisplay:10.37 W/m2 CLR
04:55 11.9 °C 10.9 °C 1015.9 hPa SE 4.7 km/h 2.3 km/h 94% 0.0 mm WeatherDisplay:10.37 W/m2 CLR
05:00 11.9 °C 10.9 °C 1014.9 hPa Calm     94% 0.0 mm WeatherDisplay:10.37 W/m2 CLR
05:05 11.9 °C 10.9 °C 1014.9 hPa East 3.7 km/h 1.9 km/h 94% 0.0 mm WeatherDisplay:10.37 W/m2 CLR
05:10 11.9 °C 10.9 °C 1014.9 hPa ESE 1.9 km/h   94% 0.0 mm WeatherDisplay:10.37 W/m2 CLR
05:15 11.8 °C 10.9 °C 1015.9 hPa ESE 3.7 km/h 1.4 km/h 94% 0.0 mm WeatherDisplay:10.37 W/m2
05:20 11.8 °C 10.9 °C 1015.9 hPa Calm     94% 0.0 mm WeatherDisplay:10.37 W/m2
05:25 11.7 °C 10.8 °C 1015.9 hPa Calm     94% 0.0 mm WeatherDisplay:10.37 W/m2
05:30 11.7 °C 10.8 °C 1015.9 hPa Calm     94% 0.0 mm WeatherDisplay:10.37 W/m2
05:35 11.6 °C 10.7 °C 1015.9 hPa Calm     94% 0.0 mm WeatherDisplay:10.37 W/m2
05:40 11.6 °C 10.7 °C 1015.9 hPa Calm     94% 0.0 mm WeatherDisplay:10.37 W/m2
05:45 11.5 °C 10.6 °C 1015.9 hPa Calm     94% 0.0 mm WeatherDisplay:10.37 W/m2
05:50 11.5 °C 10.6 °C 1015.9 hPa Calm     94% 0.0 mm WeatherDisplay:10.37 W/m2
05:55 11.5 °C 10.6 °C 1015.9 hPa Calm     94% 0.0 mm WeatherDisplay:10.37 W/m2
06:00 11.5 °C 10.6 °C 1015.9 hPa ESE 1.9 km/h 1.4 km/h 94% 0.0 mm WeatherDisplay:10.37 W/m2
06:05 11.5 °C 10.6 °C 1015.9 hPa SSE 2.3 km/h 2.6 km/h 94% 0.0 mm WeatherDisplay:10.37 W/m2
06:10 11.4 °C 10.4 °C 1015.9 hPa Calm     94% 0.0 mm WeatherDisplay:10.37 W/m2
06:15 11.4 °C 10.4 °C 1015.9 hPa East 1.9 km/h 1.4 km/h 94% 0.0 mm WeatherDisplay:10.37 W/m2
06:20 11.4 °C 10.4 °C 1015.9 hPa Calm     94% 0.0 mm WeatherDisplay:10.37 W/m2
06:25 11.4 °C 10.4 °C 1015.9 hPa Calm     94% 0.0 mm WeatherDisplay:10.37 W/m2
06:30 11.5 °C 10.6 °C 1015.9 hPa Calm     94% 0.0 mm WeatherDisplay:10.37 W/m2
06:35 11.6 °C 10.8 °C 1015.9 hPa ESE 1.9 km/h   95% 0.0 mm WeatherDisplay:10.37 W/m2
06:40 11.7 °C 10.9 °C 1015.9 hPa SSE 1.9 km/h   95% 0.0 mm WeatherDisplay:10.37 W/m2
06:45 11.8 °C 11.0 °C 1015.9 hPa ENE 3.7 km/h   95% 0.0 mm WeatherDisplay:10.37 W/m2 CLR
06:50 12.0 °C 11.2 °C 1015.9 hPa SSE 1.9 km/h   95% 0.0 mm WeatherDisplay:10.37 W/m2 CLR
06:55 12.1 °C 11.3 °C 1015.9 hPa Calm     95% 0.0 mm WeatherDisplay:10.37 W/m2 CLR
07:00 12.1 °C 11.3 °C 1015.9 hPa Calm     95% 0.0 mm WeatherDisplay:10.37 W/m2 CLR
07:05 12.2 °C 11.4 °C 1015.9 hPa Calm     95% 0.0 mm WeatherDisplay:10.37 W/m2 CLR
07:10 12.3 °C 11.5 °C 1015.9 hPa Calm     95% 0.0 mm WeatherDisplay:10.37 W/m2 CLR
07:15 12.3 °C 11.5 °C 1015.9 hPa Calm     95% 0.0 mm WeatherDisplay:10.37 W/m2
07:20 12.4 °C 11.6 °C 1015.9 hPa Calm     95% 0.0 mm WeatherDisplay:10.37 W/m2
07:25 12.5 °C 12.1 °C 1015.9 hPa Calm     97% 0.0 mm WeatherDisplay:10.37 W/m2
07:30 12.7 °C 12.2 °C 1015.9 hPa Calm     97% 0.0 mm WeatherDisplay:10.37 W/m2
07:35 12.8 °C 12.3 °C 1015.9 hPa Calm     97% 0.0 mm WeatherDisplay:10.37 W/m2
07:40 13.0 °C 12.6 °C 1015.9 hPa Calm     97% 0.0 mm WeatherDisplay:10.37 W/m2
07:45 13.1 °C 13.1 °C 1015.9 hPa Calm     100% 0.0 mm WeatherDisplay:10.37 W/m2
07:50 13.1 °C 13.1 °C 1015.9 hPa Calm     100% 0.0 mm WeatherDisplay:10.37 W/m2
07:55 13.2 °C 13.2 °C 1015.9 hPa Calm     100% 0.0 mm WeatherDisplay:10.37 W/m2
08:00 13.2 °C 13.2 °C 1016.9 hPa Calm     100% 0.0 mm WeatherDisplay:10.37 W/m2
08:05 13.3 °C 13.3 °C 1016.9 hPa Calm     100% 0.0 mm WeatherDisplay:10.37 W/m2
08:10 13.5 °C 13.5 °C 1016.9 hPa Calm     100% 0.0 mm WeatherDisplay:10.37 W/m2
08:15 13.6 °C 13.6 °C 1016.9 hPa Calm     100% 0.0 mm WeatherDisplay:10.37 W/m2
08:20 13.7 °C 13.7 °C 1016.9 hPa Calm     100% 0.0 mm WeatherDisplay:10.37 W/m2
08:25 13.8 °C 13.8 °C 1016.9 hPa Calm     100% 0.0 mm WeatherDisplay:10.37 W/m2
08:30 13.9 °C 13.9 °C 1016.9 hPa Calm     100% 0.0 mm WeatherDisplay:10.37 W/m2
08:35 14.0 °C 14.0 °C 1016.9 hPa Calm     100% 0.0 mm WeatherDisplay:10.37 W/m2
08:40 14.1 °C 14.1 °C 1016.9 hPa Calm     100% 0.0 mm WeatherDisplay:10.37 W/m2
08:45 14.2 °C 14.2 °C 1016.9 hPa West 3.7 km/h   100% 0.0 mm WeatherDisplay:10.37 W/m2
08:50 14.3 °C 14.3 °C 1016.9 hPa West 1.9 km/h   100% 0.0 mm WeatherDisplay:10.37 W/m2
08:55 14.3 °C 14.3 °C 1016.9 hPa WSW 5.6 km/h   100% 0.0 mm WeatherDisplay:10.37 W/m2
09:00 14.5 °C 14.5 °C 1016.9 hPa Calm     100% 0.0 mm WeatherDisplay:10.37 W/m2
09:05 14.6 °C 14.6 °C 1016.9 hPa NW 1.9 km/h   100% 0.0 mm WeatherDisplay:10.37 W/m2
09:10 14.7 °C 14.7 °C 1016.9 hPa Calm     100% 0.0 mm WeatherDisplay:10.37 W/m2
09:15 14.8 °C 14.8 °C 1016.9 hPa Calm     100% 0.0 mm WeatherDisplay:10.37 W/m2 OVC
09:20 15.0 °C 14.6 °C 1016.9 hPa North 1.9 km/h   97% 0.0 mm WeatherDisplay:10.37 W/m2 OVC
09:25 15.1 °C 14.6 °C 1016.9 hPa Calm   1.4 km/h 97% 0.0 mm WeatherDisplay:10.37 W/m2 OVC
09:30 15.3 °C 14.8 °C 1016.9 hPa Calm     97% 0.0 mm WeatherDisplay:10.37 W/m2 OVC
09:35 15.4 °C 14.6 °C 1016.9 hPa Calm     95% 0.0 mm WeatherDisplay:10.37 W/m2 OVC
09:40 15.5 °C 14.7 °C 1016.9 hPa Calm     95% 0.0 mm WeatherDisplay:10.37 W/m2 OVC
09:45 15.6 °C 14.8 °C 1017.9 hPa West 3.7 km/h 1.9 km/h 95% 0.0 mm WeatherDisplay:10.37 W/m2 BKN
09:50 15.7 °C 14.9 °C 1017.9 hPa Calm     95% 0.0 mm WeatherDisplay:10.37 W/m2 BKN
09:55 16.0 °C 15.1 °C 1017.9 hPa WSW 1.9 km/h   94% 0.0 mm WeatherDisplay:10.37 W/m2 BKN
10:00 16.4 °C 15.3 °C 1017.9 hPa NW 4.2 km/h   93% 0.0 mm WeatherDisplay:10.37 W/m2 BKN
10:05 17.0 °C 15.5 °C 1017.9 hPa West 4.7 km/h 3.2 km/h 91% 0.0 mm WeatherDisplay:10.37 W/m2 BKN
10:10 16.9 °C 14.7 °C 1017.9 hPa SW 3.7 km/h 2.3 km/h 87% 0.0 mm WeatherDisplay:10.37 W/m2 BKN
10:15 17.1 °C 15.3 °C 1017.9 hPa SSW 3.7 km/h   89% 0.0 mm WeatherDisplay:10.37 W/m2 BKN
10:20 17.6 °C 15.4 °C 1017.9 hPa West 3.9 km/h 2.6 km/h 87% 0.0 mm WeatherDisplay:10.37 W/m2 BKN
10:25 18.0 °C 15.6 °C 1017.9 hPa WSW 5.6 km/h 4.2 km/h 86% 0.0 mm WeatherDisplay:10.37 W/m2 BKN
10:30 18.0 °C 14.7 °C 1017.9 hPa WNW 11.1 km/h 5.3 km/h 81% 0.0 mm WeatherDisplay:10.37 W/m2 BKN
10:35 18.0 °C 14.9 °C 1017.9 hPa SW 3.7 km/h 1.9 km/h 82% 0.0 mm WeatherDisplay:10.37 W/m2 BKN
10:40 18.4 °C 15.3 °C 1017.9 hPa WNW 9.3 km/h 5.8 km/h 82% 0.0 mm WeatherDisplay:10.37 W/m2 BKN
10:45 18.7 °C 15.4 °C 1017.9 hPa NW 3.7 km/h 2.3 km/h 81% 0.0 mm WeatherDisplay:10.37 W/m2 BKN
10:50 19.2 °C 15.3 °C 1017.9 hPa West 3.7 km/h 2.6 km/h 78% 0.0 mm WeatherDisplay:10.37 W/m2 BKN
10:55 19.6 °C 15.4 °C 1017.9 hPa WNW 4.2 km/h 1.9 km/h 77% 0.0 mm WeatherDisplay:10.37 W/m2 BKN
11:00 19.8 °C 15.7 °C 1017.9 hPa SW 3.7 km/h 2.3 km/h 77% 0.0 mm WeatherDisplay:10.37 W/m2 BKN
11:05 20.0 °C 14.6 °C 1017.9 hPa West 3.7 km/h 2.3 km/h 71% 0.0 mm WeatherDisplay:10.37 W/m2 BKN
11:10 19.6 °C 15.1 °C 1017.9 hPa SSE 1.9 km/h   75% 0.0 mm WeatherDisplay:10.37 W/m2 BKN
11:15 19.1 °C 13.9 °C 1017.9 hPa West 3.7 km/h 1.4 km/h 72% 0.0 mm WeatherDisplay:10.37 W/m2 SCT
11:20 19.3 °C 14.3 °C 1017.9 hPa SW 3.7 km/h 1.4 km/h 73% 0.0 mm WeatherDisplay:10.37 W/m2 SCT
11:25 19.9 °C 14.9 °C 1017.9 hPa West 16.7 km/h 5.8 km/h 73% 0.0 mm WeatherDisplay:10.37 W/m2 SCT
11:30 20.3 °C 13.9 °C 1016.9 hPa WSW 7.4 km/h 4.7 km/h 67% 0.0 mm WeatherDisplay:10.37 W/m2 SCT
11:35 20.4 °C 14.1 °C 1016.9 hPa WSW 3.9 km/h 2.3 km/h 67% 0.0 mm WeatherDisplay:10.37 W/m2 SCT
11:40 20.8 °C 14.2 °C 1016.9 hPa West 7.4 km/h 3.2 km/h 66% 0.0 mm WeatherDisplay:10.37 W/m2 SCT
11:45 21.0 °C 14.6 °C 1017.9 hPa West 3.9 km/h 1.9 km/h 67% 0.0 mm WeatherDisplay:10.37 W/m2 FEW
11:50 21.1 °C 14.5 °C 1017.9 hPa West 9.3 km/h 3.2 km/h 66% 0.0 mm WeatherDisplay:10.37 W/m2 FEW
11:55 20.8 °C 13.7 °C 1017.9 hPa NW 9.7 km/h 5.3 km/h 64% 0.0 mm WeatherDisplay:10.37 W/m2 FEW
12:00 20.7 °C 14.1 °C 1017.9 hPa SSW 3.7 km/h 2.6 km/h 66% 0.0 mm WeatherDisplay:10.37 W/m2 FEW
12:05 20.6 °C 13.8 °C 1017.9 hPa WSW 3.9 km/h 4.2 km/h 65% 0.0 mm WeatherDisplay:10.37 W/m2 FEW
12:10 20.6 °C 14.0 °C 1017.9 hPa West 5.6 km/h 5.3 km/h 66% 0.0 mm WeatherDisplay:10.37 W/m2 FEW
12:15 21.1 °C 14.7 °C 1016.9 hPa West 3.9 km/h 3.2 km/h 67% 0.0 mm WeatherDisplay:10.37 W/m2 SCT
12:20 20.7 °C 13.9 °C 1016.9 hPa WSW 3.7 km/h 2.6 km/h 65% 0.0 mm WeatherDisplay:10.37 W/m2 SCT
12:25 20.5 °C 13.7 °C 1016.9 hPa WNW 9.3 km/h 6.1 km/h 65% 0.0 mm WeatherDisplay:10.37 W/m2 SCT
12:30 20.4 °C 13.8 °C 1017.9 hPa SW 7.4 km/h 4.2 km/h 66% 0.0 mm WeatherDisplay:10.37 W/m2 SCT
12:35 20.6 °C 14.0 °C 1017.9 hPa SW 1.9 km/h 1.9 km/h 66% 0.0 mm WeatherDisplay:10.37 W/m2 SCT
12:40 20.3 °C 13.9 °C 1017.9 hPa SW 1.9 km/h   67% 0.0 mm WeatherDisplay:10.37 W/m2 SCT
12:45 20.1 °C 14.0 °C 1017.9 hPa SW 1.9 km/h 1.9 km/h 68% 0.0 mm WeatherDisplay:10.37 W/m2 SCT
12:50 20.0 °C 13.7 °C 1017.9 hPa WSW 4.7 km/h 4.2 km/h 67% 0.0 mm WeatherDisplay:10.37 W/m2 SCT
12:55 19.9 °C 13.8 °C 1017.9 hPa WNW 5.6 km/h 3.9 km/h 68% 0.0 mm WeatherDisplay:10.37 W/m2 SCT
13:00 19.9 °C 13.6 °C 1017.9 hPa WNW 5.8 km/h 4.2 km/h 67% 0.0 mm WeatherDisplay:10.37 W/m2 SCT
13:05 20.0 °C 13.0 °C 1017.9 hPa WNW 3.7 km/h 3.9 km/h 64% 0.0 mm WeatherDisplay:10.37 W/m2 SCT
13:10 20.5 °C 14.2 °C 1017.9 hPa SW 3.7 km/h 2.6 km/h 67% 0.0 mm WeatherDisplay:10.37 W/m2 SCT
13:15 20.8 °C 14.2 °C 1017.9 hPa North 9.3 km/h 5.8 km/h 66% 0.0 mm WeatherDisplay:10.37 W/m2 SCT
13:20 20.5 °C 13.9 °C 1017.9 hPa SW 3.7 km/h 2.3 km/h 66% 0.0 mm WeatherDisplay:10.37 W/m2 SCT
13:25 20.5 °C 14.2 °C 1017.9 hPa NW 5.6 km/h 3.9 km/h 67% 0.0 mm WeatherDisplay:10.37 W/m2 SCT
13:30 20.5 °C 14.2 °C 1017.9 hPa SW 3.7 km/h 3.2 km/h 67% 0.0 mm WeatherDisplay:10.37 W/m2 SCT
13:35 21.0 °C 14.6 °C 1017.9 hPa SW 1.9 km/h   67% 0.0 mm WeatherDisplay:10.37 W/m2 SCT
13:40 20.9 °C 14.1 °C 1017.9 hPa SW 7.4 km/h 4.7 km/h 65% 0.0 mm WeatherDisplay:10.37 W/m2 SCT
13:45 20.8 °C 13.5 °C 1017.9 hPa SW 3.7 km/h 3.5 km/h 63% 0.0 mm WeatherDisplay:10.37 W/m2 SCT
13:50 21.1 °C 13.1 °C 1017.9 hPa SW 7.4 km/h 5.0 km/h 60% 0.0 mm WeatherDisplay:10.37 W/m2 SCT
13:55 21.5 °C 13.4 °C 1017.9 hPa WSW 5.6 km/h 4.2 km/h 60% 0.0 mm WeatherDisplay:10.37 W/m2 SCT
14:00 21.4 °C 13.6 °C 1017.9 hPa South 5.6 km/h 2.6 km/h 61% 0.0 mm WeatherDisplay:10.37 W/m2 SCT
14:05 21.1 °C 13.6 °C 1017.9 hPa South 6.1 km/h 3.5 km/h 62% 0.0 mm WeatherDisplay:10.37 W/m2 SCT
14:10 21.0 °C 13.4 °C 1017.9 hPa WSW 5.6 km/h 2.3 km/h 62% 0.0 mm WeatherDisplay:10.37 W/m2 SCT
14:15 21.4 °C 13.8 °C 1017.9 hPa SW 4.7 km/h 3.5 km/h 62% 0.0 mm WeatherDisplay:10.37 W/m2 SCT
14:20 21.4 °C 13.8 °C 1017.9 hPa SSW 3.7 km/h 3.2 km/h 62% 0.0 mm WeatherDisplay:10.37 W/m2 SCT
14:25 21.7 °C 14.3 °C 1017.9 hPa SSW 4.7 km/h 2.6 km/h 63% 0.0 mm WeatherDisplay:10.37 W/m2 SCT
14:30 21.5 °C 13.9 °C 1017.9 hPa SE 9.3 km/h 4.7 km/h 62% 0.0 mm WeatherDisplay:10.37 W/m2 SCT
14:35 21.4 °C 14.1 °C 1017.9 hPa South 3.7 km/h 2.6 km/h 63% 0.0 mm WeatherDisplay:10.37 W/m2 SCT
14:40 21.3 °C 13.9 °C 1017.9 hPa NW 5.6 km/h 4.2 km/h 63% 0.0 mm WeatherDisplay:10.37 W/m2 SCT
14:45 21.1 °C 13.8 °C 1018.9 hPa SW 1.9 km/h 1.4 km/h 63% 0.0 mm WeatherDisplay:10.37 W/m2 SCT
14:50 21.1 °C 13.8 °C 1018.9 hPa NW 3.7 km/h 2.3 km/h 63% 0.0 mm WeatherDisplay:10.37 W/m2 SCT
14:55 21.5 °C 14.4 °C 1018.9 hPa WSW 3.7 km/h 3.2 km/h 64% 0.0 mm WeatherDisplay:10.37 W/m2 SCT
15:00 21.6 °C 13.2 °C 1016.9 hPa West 9.3 km/h 7.6 km/h 59% 0.0 mm WeatherDisplay:10.37 W/m2 SCT
15:05 21.6 °C 13.2 °C 1016.9 hPa West 13.0 km/h 7.6 km/h 59% 0.0 mm WeatherDisplay:10.37 W/m2 SCT
15:10 21.4 °C 13.1 °C 1016.9 hPa WSW 3.7 km/h 2.3 km/h 59% 0.0 mm WeatherDisplay:10.37 W/m2 SCT
15:15 21.4 °C 13.6 °C 1016.9 hPa WNW 5.8 km/h 1.9 km/h 61% 0.0 mm WeatherDisplay:10.37 W/m2 SCT
15:20 21.2 °C 13.4 °C 1016.9 hPa SW 1.9 km/h 1.9 km/h 61% 0.0 mm WeatherDisplay:10.37 W/m2 SCT
15:25 21.1 °C 13.6 °C 1016.9 hPa NW 7.4 km/h 4.7 km/h 62% 0.0 mm WeatherDisplay:10.37 W/m2 SCT
15:30 21.2 °C 13.4 °C 1017.9 hPa SSW 6.1 km/h 5.8 km/h 61% 0.0 mm WeatherDisplay:10.37 W/m2 SCT
15:35 21.2 °C 13.1 °C 1017.9 hPa WSW 5.6 km/h 3.9 km/h 60% 0.0 mm WeatherDisplay:10.37 W/m2 SCT
15:40 21.4 °C 13.6 °C 1017.9 hPa SSW 7.4 km/h 4.7 km/h 61% 0.0 mm WeatherDisplay:10.37 W/m2 SCT
15:45 21.3 °C 13.4 °C 1017.9 hPa SW 9.3 km/h 5.8 km/h 61% 0.0 mm WeatherDisplay:10.37 W/m2 SCT
15:50 21.1 °C 13.3 °C 1017.9 hPa SW 3.7 km/h 2.6 km/h 61% 0.0 mm WeatherDisplay:10.37 W/m2 SCT
15:55 21.0 °C 13.2 °C 1017.9 hPa West 5.6 km/h 3.2 km/h 61% 0.0 mm WeatherDisplay:10.37 W/m2 SCT
16:00 21.1 °C 13.6 °C 1017.9 hPa NW 13.0 km/h 5.0 km/h 62% 0.0 mm WeatherDisplay:10.37 W/m2 SCT
16:05 20.9 °C 12.8 °C 1017.9 hPa SSW 9.3 km/h 3.2 km/h 60% 0.0 mm WeatherDisplay:10.37 W/m2 SCT
16:10 20.9 °C 13.1 °C 1017.9 hPa SSW 7.4 km/h 5.0 km/h 61% 0.0 mm WeatherDisplay:10.37 W/m2 SCT
16:15 20.7 °C 12.9 °C 1017.9 hPa South 3.7 km/h 2.6 km/h 61% 0.0 mm WeatherDisplay:10.37 W/m2 FEW
16:20 20.7 °C 12.9 °C 1017.9 hPa WSW 5.6 km/h 3.5 km/h 61% 0.0 mm WeatherDisplay:10.37 W/m2 FEW
16:25 20.6 °C 13.1 °C 1017.9 hPa SW 3.7 km/h   62% 0.0 mm WeatherDisplay:10.37 W/m2 FEW
16:30 20.6 °C 13.1 °C 1017.9 hPa WSW 3.9 km/h 1.9 km/h 62% 0.0 mm WeatherDisplay:10.37 W/m2 FEW
16:35 20.3 °C 12.0 °C 1017.9 hPa SW 5.6 km/h 3.9 km/h 59% 0.0 mm WeatherDisplay:10.37 W/m2 FEW
16:40 19.6 °C 11.1 °C 1017.9 hPa SW 1.9 km/h 1.9 km/h 58% 0.0 mm WeatherDisplay:10.37 W/m2 FEW
16:45 19.2 °C 11.0 °C 1018.9 hPa Calm     59% 0.0 mm WeatherDisplay:10.37 W/m2 BKN
16:50 19.0 °C 11.1 °C 1018.9 hPa SW 3.7 km/h   60% 0.0 mm WeatherDisplay:10.37 W/m2 BKN
16:55 18.8 °C 11.1 °C 1018.9 hPa SW 1.9 km/h 2.3 km/h 61% 0.0 mm WeatherDisplay:10.37 W/m2 BKN
17:00 18.6 °C 11.2 °C 1018.9 hPa East 3.7 km/h 3.2 km/h 62% 0.0 mm WeatherDisplay:10.37 W/m2 BKN
17:05 18.5 °C 11.3 °C 1018.9 hPa Calm     63% 0.0 mm WeatherDisplay:10.37 W/m2 BKN
17:10 18.4 °C 11.4 °C 1018.9 hPa WNW 1.9 km/h 1.9 km/h 64% 0.0 mm WeatherDisplay:10.37 W/m2 BKN
17:15 18.3 °C 11.4 °C 1018.9 hPa NW 2.3 km/h   64% 0.0 mm WeatherDisplay:10.37 W/m2 BKN
17:20 18.4 °C 11.9 °C 1018.9 hPa Calm     66% 0.0 mm WeatherDisplay:10.37 W/m2 BKN
17:25 18.8 °C 11.6 °C 1018.9 hPa NW 3.7 km/h 2.3 km/h 63% 0.0 mm WeatherDisplay:10.37 W/m2 BKN
17:30 19.2 °C 12.0 °C 1018.9 hPa WNW 1.9 km/h   63% 0.0 mm WeatherDisplay:10.37 W/m2 BKN
17:35 19.4 °C 12.2 °C 1018.9 hPa Calm     63% 0.0 mm WeatherDisplay:10.37 W/m2 BKN
17:40 19.7 °C 12.4 °C 1018.9 hPa SW 1.9 km/h   63% 0.0 mm WeatherDisplay:10.37 W/m2 BKN
17:45 19.9 °C 12.4 °C 1018.9 hPa SW 5.6 km/h 1.9 km/h 62% 0.0 mm WeatherDisplay:10.37 W/m2 BKN
17:50 20.5 °C 11.9 °C 1018.9 hPa West 5.6 km/h 3.9 km/h 58% 0.0 mm WeatherDisplay:10.37 W/m2 BKN
17:55 20.7 °C 11.9 °C 1018.9 hPa SW 5.6 km/h 3.2 km/h 57% 0.0 mm WeatherDisplay:10.37 W/m2 BKN
18:00 20.9 °C 12.1 °C 1017.9 hPa SSW 3.7 km/h 2.3 km/h 57% 0.0 mm WeatherDisplay:10.37 W/m2 BKN
18:05 21.0 °C 11.3 °C 1017.9 hPa WSW 5.6 km/h 3.9 km/h 54% 0.0 mm WeatherDisplay:10.37 W/m2 BKN
18:10 21.0 °C 11.3 °C 1017.9 hPa SW 5.6 km/h 2.3 km/h 54% 0.0 mm WeatherDisplay:10.37 W/m2 BKN
18:15 21.1 °C 11.4 °C 1018.9 hPa SW 7.4 km/h 3.2 km/h 54% 0.0 mm WeatherDisplay:10.37 W/m2 FEW
18:20 21.1 °C 11.4 °C 1018.9 hPa SW 5.6 km/h 3.5 km/h 54% 0.0 mm WeatherDisplay:10.37 W/m2 FEW
18:25 21.1 °C 11.4 °C 1018.9 hPa West 3.7 km/h 2.3 km/h 54% 0.0 mm WeatherDisplay:10.37 W/m2 FEW
18:30 21.0 °C 11.1 °C 1018.9 hPa West 3.7 km/h 1.9 km/h 53% 0.0 mm WeatherDisplay:10.37 W/m2 FEW
18:35 21.0 °C 11.3 °C 1018.9 hPa NNE 5.6 km/h 2.6 km/h 54% 0.0 mm WeatherDisplay:10.37 W/m2 FEW
18:40 21.0 °C 11.3 °C 1018.9 hPa SW 3.7 km/h 3.2 km/h 54% 0.0 mm WeatherDisplay:10.37 W/m2 FEW
18:45 21.0 °C 11.1 °C 1018.9 hPa SW 5.6 km/h   53% 0.0 mm WeatherDisplay:10.37 W/m2 CLR
18:50 20.9 °C 11.2 °C 1018.9 hPa WNW 3.7 km/h 2.6 km/h 54% 0.0 mm WeatherDisplay:10.37 W/m2 CLR
18:55 20.8 °C 11.2 °C 1018.9 hPa SW 3.7 km/h 1.4 km/h 54% 0.0 mm WeatherDisplay:10.37 W/m2 CLR
19:00 20.8 °C 11.4 °C 1018.9 hPa SSW 3.7 km/h 2.3 km/h 55% 0.0 mm WeatherDisplay:10.37 W/m2 CLR
19:05 20.7 °C 11.3 °C 1018.9 hPa SSW 3.7 km/h 1.9 km/h 55% 0.0 mm WeatherDisplay:10.37 W/m2 CLR
19:10 20.6 °C 11.2 °C 1018.9 hPa South 5.0 km/h 4.2 km/h 55% 0.0 mm WeatherDisplay:10.37 W/m2 CLR
19:15 20.5 °C 11.2 °C 1018.9 hPa SW 3.7 km/h 3.2 km/h 55% 0.0 mm WeatherDisplay:10.37 W/m2 CLR
19:20 20.4 °C 11.1 °C 1018.9 hPa SW 3.7 km/h 2.3 km/h 55% 0.0 mm WeatherDisplay:10.37 W/m2 CLR
19:25 20.3 °C 11.2 °C 1018.9 hPa SW 1.9 km/h 1.4 km/h 56% 0.0 mm WeatherDisplay:10.37 W/m2 CLR
19:30 20.2 °C 10.9 °C 1018.9 hPa SSW 2.6 km/h 1.9 km/h 55% 0.0 mm WeatherDisplay:10.37 W/m2 CLR
19:35 20.0 °C 10.9 °C 1018.9 hPa Calm     56% 0.0 mm WeatherDisplay:10.37 W/m2 CLR
19:40 19.9 °C 11.1 °C 1018.9 hPa Calm     57% 0.0 mm WeatherDisplay:10.37 W/m2 CLR
19:45 19.7 °C 10.9 °C 1018.9 hPa SE 1.9 km/h 1.4 km/h 57% 0.0 mm WeatherDisplay:10.37 W/m2 CLR
19:50 19.5 °C 11.0 °C 1018.9 hPa SSW 1.9 km/h 1.9 km/h 58% 0.0 mm WeatherDisplay:10.37 W/m2 CLR
19:55 19.4 °C 10.9 °C 1018.9 hPa SW 3.7 km/h 1.4 km/h 58% 0.0 mm WeatherDisplay:10.37 W/m2 CLR
20:00 19.3 °C 11.1 °C 1019.9 hPa SW 1.9 km/h 1.9 km/h 59% 0.0 mm WeatherDisplay:10.37 W/m2 CLR
20:05 19.1 °C 10.9 °C 1019.9 hPa SW 3.7 km/h 1.4 km/h 59% 0.0 mm WeatherDisplay:10.37 W/m2 CLR
20:10 19.0 °C 10.8 °C 1019.9 hPa SSW 3.7 km/h   59% 0.0 mm WeatherDisplay:10.37 W/m2 CLR
20:15 18.8 °C 10.6 °C 1019.9 hPa SW 7.4 km/h 1.9 km/h 59% 0.0 mm WeatherDisplay:10.37 W/m2 FEW
20:20 18.6 °C 10.4 °C 1019.9 hPa SW 3.7 km/h 2.3 km/h 59% 0.0 mm WeatherDisplay:10.37 W/m2 FEW
20:25 18.5 °C 10.3 °C 1019.9 hPa SW 3.7 km/h 2.3 km/h 59% 0.0 mm WeatherDisplay:10.37 W/m2 FEW
20:30 18.3 °C 9.9 °C 1019.9 hPa SW 3.7 km/h 3.2 km/h 58% 0.0 mm WeatherDisplay:10.37 W/m2 FEW
20:35 18.1 °C 9.7 °C 1019.9 hPa SW 3.9 km/h 2.6 km/h 58% 0.0 mm WeatherDisplay:10.37 W/m2 FEW
20:40 18.0 °C 9.6 °C 1019.9 hPa SW 1.9 km/h 1.4 km/h 58% 0.0 mm WeatherDisplay:10.37 W/m2 FEW
20:45 17.8 °C 9.4 °C 1019.9 hPa SW 1.9 km/h   58% 0.0 mm WeatherDisplay:10.37 W/m2 CLR
20:50 17.6 °C 9.5 °C 1019.9 hPa Calm     59% 0.0 mm WeatherDisplay:10.37 W/m2 CLR
20:55 17.3 °C 9.4 °C 1019.9 hPa Calm     60% 0.0 mm WeatherDisplay:10.37 W/m2 CLR
21:00 17.2 °C 9.6 °C 1019.9 hPa South 1.9 km/h 1.4 km/h 61% 0.0 mm WeatherDisplay:10.37 W/m2 CLR
21:05 17.0 °C 9.7 °C 1019.9 hPa SSW 3.7 km/h 2.6 km/h 62% 0.0 mm WeatherDisplay:10.37 W/m2 CLR
21:10 17.0 °C 9.9 °C 1019.9 hPa SSW 3.7 km/h 1.9 km/h 63% 0.0 mm WeatherDisplay:10.37 W/m2 CLR
21:15 16.8 °C 10.2 °C 1018.9 hPa SSW 2.6 km/h 2.3 km/h 65% 0.0 mm WeatherDisplay:10.37 W/m2 CLR
21:20 16.7 °C 10.3 °C 1018.9 hPa SSW 3.7 km/h 1.9 km/h 66% 0.0 mm WeatherDisplay:10.37 W/m2 CLR
21:25 16.7 °C 10.6 °C 1018.9 hPa SSW 2.6 km/h 1.4 km/h 67% 0.0 mm WeatherDisplay:10.37 W/m2 CLR
21:30 16.5 °C 10.6 °C 1019.9 hPa SSW 3.7 km/h 1.4 km/h 68% 0.0 mm WeatherDisplay:10.37 W/m2 CLR
21:35 16.4 °C 10.9 °C 1019.9 hPa SW 3.7 km/h 2.6 km/h 70% 0.0 mm WeatherDisplay:10.37 W/m2 CLR
21:40 16.3 °C 11.1 °C 1019.9 hPa SW 3.7 km/h 1.9 km/h 71% 0.0 mm WeatherDisplay:10.37 W/m2 CLR
21:45 16.2 °C 10.9 °C 1019.9 hPa Calm     71% 0.0 mm WeatherDisplay:10.37 W/m2 CLR
21:50 16.1 °C 11.1 °C 1019.9 hPa Calm     72% 0.0 mm WeatherDisplay:10.37 W/m2 CLR
21:55 16.0 °C 11.4 °C 1019.9 hPa Calm     74% 0.0 mm WeatherDisplay:10.37 W/m2 CLR
22:00 15.9 °C 11.3 °C 1019.9 hPa Calm     74% 0.0 mm WeatherDisplay:10.37 W/m2 CLR
22:05 15.8 °C 11.2 °C 1019.9 hPa SW 2.3 km/h 1.9 km/h 74% 0.0 mm WeatherDisplay:10.37 W/m2 CLR
Sääasema nurmiin, Utti
Page generated in 0.87 seconds.